Time;durP1;ratioP1;P1;durP2;ratioP2;P2;SDS_P1;SDS_P2;PMS_P1;PMS_P2;Temp;Humidity;BMP_temperature;BMP_pressure;BME280_temperature;BME280_humidity;BME280_pressure;Samples;Min_cycle;Max_cycle;Signal;HPM_P1;HPM_P2
2023/03/23 00:00:14;;;;;;;;;;;17.20;69.00;;;;;;10128472;28;93287;-69
2023/03/23 00:05:15;;;;;;;;;;;17.20;69.40;;;;;;10111404;28;92612;-69
2023/03/23 00:10:16;;;;;;;;;;;17.20;69.00;;;;;;10128064;28;93727;-70
2023/03/23 00:15:17;;;;;;;;;;;17.20;68.90;;;;;;10111611;28;95167;-69
2023/03/23 00:20:18;;;;;;;;;;;17.10;68.80;;;;;;10108009;28;95869;-68
2023/03/23 00:25:18;;;;;;;;;;;17.10;68.80;;;;;;10117123;28;93199;-69
2023/03/23 00:30:19;;;;;;;;;;;17.10;68.70;;;;;;10110514;28;93304;-69
2023/03/23 00:35:19;;;;;;;;;;;17.10;68.70;;;;;;10126913;28;93306;-69
2023/03/23 00:40:20;;;;;;;;;;;17.10;68.70;;;;;;10126945;28;93215;-69
2023/03/23 00:45:21;;;;;;;;;;;17.10;68.70;;;;;;10124806;28;95124;-70
2023/03/23 00:50:22;;;;;;;;;;;17.10;68.70;;;;;;10126187;28;94457;-69
2023/03/23 00:55:24;;;;;;;;;;;17.10;68.70;;;;;;10128119;28;92254;-70
2023/03/23 01:00:25;;;;;;;;;;;17.10;68.70;;;;;;10126843;28;93375;-69
2023/03/23 01:05:31;;;;;;;;;;;17.10;68.60;;;;;;10110007;28;93116;-69
2023/03/23 01:10:32;;;;;;;;;;;17.10;68.70;;;;;;10128926;28;95713;-68
2023/03/23 01:15:33;;;;;;;;;;;17.10;68.60;;;;;;10133832;28;94039;-70
2023/03/23 01:20:34;;;;;;;;;;;17.00;68.60;;;;;;10133728;28;93409;-69
2023/03/23 01:25:36;;;;;;;;;;;17.00;68.50;;;;;;10132317;28;93466;-70
2023/03/23 01:30:36;;;;;;;;;;;17.00;68.60;;;;;;10134024;28;93373;-70
2023/03/23 01:35:37;;;;;;;;;;;17.00;68.50;;;;;;10133624;28;94545;-69
2023/03/23 01:40:38;;;;;;;;;;;17.00;68.50;;;;;;10133073;28;93189;-69
2023/03/23 01:45:39;;;;;;;;;;;17.00;68.50;;;;;;10130027;28;93630;-69
2023/03/23 01:51:01;;;;;;;;;;;17.00;68.60;;;;;;10132113;28;93735;-69
2023/03/23 01:56:02;;;;;;;;;;;17.00;68.50;;;;;;10133739;28;93181;-69
2023/03/23 02:01:05;;;;;;;;;;;17.00;68.40;;;;;;10130427;28;95497;-69
2023/03/23 02:06:05;;;;;;;;;;;17.00;68.40;;;;;;10131579;28;94448;-68
2023/03/23 02:11:13;;;;;;;;;;;16.90;68.40;;;;;;10131642;28;93547;-67
2023/03/23 02:16:15;;;;;;;;;;;16.90;68.40;;;;;;10130596;28;93892;-68
2023/03/23 02:21:26;;;;;;;;;;;16.90;68.40;;;;;;10099340;28;95170;-68
2023/03/23 02:26:27;;;;;;;;;;;16.90;68.40;;;;;;10114694;28;93577;-69
2023/03/23 02:31:28;;;;;;;;;;;16.90;68.40;;;;;;10130693;28;96001;-69
2023/03/23 02:36:43;;;;;;;;;;;16.90;68.30;;;;;;10114590;28;94332;-68
2023/03/23 02:41:53;;;;;;;;;;;16.90;68.30;;;;;;10113623;28;93351;-69
2023/03/23 02:46:54;;;;;;;;;;;16.90;68.20;;;;;;10098162;28;93828;-69
2023/03/23 02:51:56;;;;;;;;;;;16.90;68.20;;;;;;10110983;28;96634;-69
2023/03/23 02:56:57;;;;;;;;;;;16.90;68.30;;;;;;10128232;28;96074;-69
2023/03/23 03:02:05;;;;;;;;;;;16.90;68.20;;;;;;10131273;28;94316;-68
2023/03/23 03:07:24;;;;;;;;;;;16.90;68.20;;;;;;10121269;28;94325;-68
2023/03/23 03:12:32;;;;;;;;;;;16.90;68.10;;;;;;10130045;28;93195;-69
2023/03/23 03:17:35;;;;;;;;;;;16.90;68.10;;;;;;10127391;28;94397;-70
2023/03/23 03:22:37;;;;;;;;;;;16.90;68.20;;;;;;10129733;28;93115;-69
2023/03/23 03:27:40;;;;;;;;;;;16.90;68.10;;;;;;10130741;28;93930;-69
2023/03/23 03:32:43;;;;;;;;;;;16.90;68.10;;;;;;10128487;28;93456;-70
2023/03/23 03:37:46;;;;;;;;;;;16.90;68.10;;;;;;10126031;28;93918;-69
2023/03/23 03:42:46;;;;;;;;;;;16.90;68.00;;;;;;10126753;28;95545;-69
2023/03/23 03:47:47;;;;;;;;;;;16.90;68.10;;;;;;10111943;28;95595;-70
2023/03/23 03:52:48;;;;;;;;;;;16.80;67.90;;;;;;10111584;28;93855;-69
2023/03/23 03:57:49;;;;;;;;;;;16.80;67.80;;;;;;10111957;28;94473;-69
2023/03/23 04:02:54;;;;;;;;;;;16.80;67.80;;;;;;10128148;28;92982;-70
2023/03/23 04:08:01;;;;;;;;;;;16.80;67.80;;;;;;10128984;28;94361;-70
2023/03/23 04:13:04;;;;;;;;;;;16.80;67.70;;;;;;10127809;28;93367;-69
2023/03/23 04:18:05;;;;;;;;;;;16.80;67.80;;;;;;10129171;28;92764;-69
2023/03/23 04:23:05;;;;;;;;;;;16.80;67.70;;;;;;10128266;28;93105;-67
2023/03/23 04:28:06;;;;;;;;;;;16.80;67.80;;;;;;10128439;28;93739;-70
2023/03/23 04:33:07;;;;;;;;;;;16.80;67.80;;;;;;10124073;28;96392;-69
2023/03/23 04:38:08;;;;;;;;;;;16.80;67.80;;;;;;10116413;28;93296;-70
2023/03/23 04:43:12;;;;;;;;;;;16.80;67.80;;;;;;10109608;28;95038;-69
2023/03/23 06:07:02;;;;;;;;;;;16.80;67.80;;;;;;10086823;28;94654;-65
2023/03/23 06:12:04;;;;;;;;;;;16.90;67.80;;;;;;10091930;28;93211;-64
2023/03/23 06:17:05;;;;;;;;;;;16.90;67.80;;;;;;10076433;28;94814;-65
2023/03/23 06:22:06;;;;;;;;;;;16.90;67.80;;;;;;10093042;28;94695;-65
2023/03/23 06:27:08;;;;;;;;;;;16.90;67.90;;;;;;10074327;28;93667;-64
2023/03/23 06:32:10;;;;;;;;;;;16.90;67.90;;;;;;10073258;28;96626;-65
2023/03/23 06:37:12;;;;;;;;;;;16.90;68.00;;;;;;10059176;28;93310;-64
2023/03/23 06:42:13;;;;;;;;;;;16.90;68.10;;;;;;10090584;28;93697;-65
2023/03/23 06:47:13;;;;;;;;;;;16.90;68.60;;;;;;10087366;28;93172;-64
2023/03/23 06:52:14;;;;;;;;;;;16.90;69.10;;;;;;10090072;28;92632;-65
2023/03/23 06:57:15;;;;;;;;;;;17.00;70.40;;;;;;10091345;28;93353;-64
2023/03/23 07:02:16;;;;;;;;;;;17.10;71.40;;;;;;10073954;28;93491;-64
2023/03/23 07:07:18;;;;;;;;;;;17.10;71.50;;;;;;10091673;28;93580;-65
2023/03/23 07:12:18;;;;;;;;;;;17.10;71.50;;;;;;10074626;28;93322;-67
2023/03/23 07:17:19;;;;;;;;;;;17.20;71.30;;;;;;10073832;28;96535;-65
2023/03/23 07:22:20;;;;;;;;;;;17.20;70.70;;;;;;10071648;28;96706;-65
2023/03/23 07:27:20;;;;;;;;;;;17.20;70.50;;;;;;10074042;28;92987;-65
2023/03/23 07:32:21;;;;;;;;;;;17.20;70.30;;;;;;10073429;28;95042;-65
2023/03/23 07:37:22;;;;;;;;;;;17.10;70.10;;;;;;10090725;28;94343;-67
2023/03/23 07:42:23;;;;;;;;;;;17.10;70.30;;;;;;10088257;28;93395;-66
2023/03/23 07:47:24;;;;;;;;;;;17.10;70.20;;;;;;10088303;28;93019;-65
2023/03/23 07:52:25;;;;;;;;;;;17.10;70.00;;;;;;10089758;28;92997;-66
2023/03/23 07:57:26;;;;;;;;;;;17.10;70.10;;;;;;10090168;28;92121;-66
2023/03/23 08:02:27;;;;;;;;;;;17.00;70.10;;;;;;10089206;28;93218;-66
2023/03/23 08:07:27;;;;;;;;;;;17.00;70.00;;;;;;10071708;28;93386;-66
2023/03/23 08:12:28;;;;;;;;;;;17.00;70.00;;;;;;10069234;28;96301;-66
2023/03/23 08:17:28;;;;;;;;;;;17.00;69.90;;;;;;10071332;28;94197;-65
2023/03/23 08:22:30;;;;;;;;;;;17.00;70.00;;;;;;10070969;28;93506;-65
2023/03/23 08:27:31;;;;;;;;;;;17.00;69.80;;;;;;10087931;28;94512;-66
2023/03/23 08:32:31;;;;;;;;;;;17.00;69.90;;;;;;10084471;28;93790;-65
2023/03/23 08:37:32;;;;;;;;;;;17.00;70.00;;;;;;10070960;28;93076;-64
2023/03/23 08:42:33;;;;;;;;;;;17.00;70.40;;;;;;10087014;28;93240;-64
2023/03/23 08:47:35;;;;;;;;;;;17.00;70.10;;;;;;10088072;28;92588;-64
2023/03/23 08:52:35;;;;;;;;;;;17.00;70.00;;;;;;10071386;28;93155;-64
2023/03/23 08:57:36;;;;;;;;;;;17.10;70.00;;;;;;10069840;28;94352;-65
2023/03/23 09:02:37;;;;;;;;;;;17.10;69.90;;;;;;10084719;28;95599;-64
2023/03/23 09:07:38;;;;;;;;;;;17.10;70.00;;;;;;10069942;28;93696;-65
2023/03/23 09:12:40;;;;;;;;;;;17.10;70.10;;;;;;10054091;28;93140;-65
2023/03/23 09:17:42;;;;;;;;;;;17.10;70.10;;;;;;10085697;28;93449;-66
2023/03/23 09:22:44;;;;;;;;;;;17.20;70.30;;;;;;10070486;28;93717;-65
2023/03/23 09:27:46;;;;;;;;;;;17.20;70.10;;;;;;10086644;28;94384;-65
2023/03/23 09:32:48;;;;;;;;;;;17.30;69.90;;;;;;10091855;28;93751;-65
2023/03/23 09:37:50;;;;;;;;;;;17.30;69.90;;;;;;10077127;28;96716;-65
2023/03/23 09:43:00;;;;;;;;;;;17.30;69.90;;;;;;10093832;28;93843;-65
2023/03/23 09:48:19;;;;;;;;;;;17.30;69.90;;;;;;10075578;28;94451;-65
2023/03/23 09:53:41;;;;;;;;;;;17.30;69.90;;;;;;10058237;28;96754;-65
2023/03/23 09:58:46;;;;;;;;;;;17.30;69.70;;;;;;10059560;28;93348;-65
2023/03/23 10:03:47;;;;;;;;;;;17.30;69.70;;;;;;10093094;28;93353;-65
2023/03/23 10:08:49;;;;;;;;;;;17.30;69.60;;;;;;10092806;28;93702;-65
2023/03/23 10:13:59;;;;;;;;;;;17.30;69.80;;;;;;10075406;28;94381;-65
2023/03/23 10:19:17;;;;;;;;;;;17.30;69.40;;;;;;10091357;28;93354;-65
2023/03/23 10:24:25;;;;;;;;;;;17.30;69.30;;;;;;10092198;28;93640;-65
2023/03/23 10:29:31;;;;;;;;;;;17.20;69.10;;;;;;10091799;28;93013;-65
2023/03/23 10:34:35;;;;;;;;;;;17.20;69.00;;;;;;10091760;28;93028;-65
2023/03/23 10:39:46;;;;;;;;;;;17.20;68.90;;;;;;10073681;28;93327;-65
2023/03/23 10:44:48;;;;;;;;;;;17.20;68.90;;;;;;10087228;28;97335;-65
2023/03/23 10:49:53;;;;;;;;;;;17.20;69.10;;;;;;10073954;28;94493;-65
2023/03/23 10:54:56;;;;;;;;;;;17.20;69.00;;;;;;10089906;28;94908;-65
2023/03/23 11:00:06;;;;;;;;;;;17.30;69.00;;;;;;10089610;28;93279;-65
2023/03/23 11:05:15;;;;;;;;;;;17.40;69.00;;;;;;10090849;28;94250;-65
2023/03/23 11:10:20;;;;;;;;;;;17.40;68.90;;;;;;10090941;28;92741;-65
2023/03/23 11:15:24;;;;;;;;;;;17.50;68.80;;;;;;10090236;28;94655;-63
2023/03/23 11:20:26;;;;;;;;;;;17.50;68.80;;;;;;10090940;28;92738;-65
2023/03/23 11:25:27;;;;;;;;;;;17.60;68.90;;;;;;10090350;28;95257;-65
2023/03/23 11:30:30;;;;;;;;;;;17.60;68.90;;;;;;10091035;28;94973;-65
2023/03/23 11:35:31;;;;;;;;;;;17.70;68.80;;;;;;10087285;28;95641;-65
2023/03/23 11:40:32;;;;;;;;;;;17.70;68.80;;;;;;10072794;28;93528;-65
2023/03/23 11:45:37;;;;;;;;;;;17.70;68.70;;;;;;10073379;28;94268;-65
2023/03/23 11:50:47;;;;;;;;;;;17.70;68.70;;;;;;10072516;28;93414;-65
2023/03/23 11:55:55;;;;;;;;;;;17.60;68.50;;;;;;10087983;28;92814;-65
2023/03/23 12:00:57;;;;;;;;;;;17.60;68.50;;;;;;10089963;28;94304;-65
2023/03/23 12:06:12;;;;;;;;;;;17.50;68.30;;;;;;10071991;28;95918;-65
2023/03/23 12:11:31;;;;;;;;;;;17.50;68.30;;;;;;10072693;28;92830;-65
2023/03/23 12:16:39;;;;;;;;;;;17.50;68.20;;;;;;10089096;28;94240;-65
2023/03/23 12:21:58;;;;;;;;;;;17.50;68.10;;;;;;10070871;28;93858;-65
2023/03/23 12:26:58;;;;;;;;;;;17.50;68.00;;;;;;10068324;28;96417;-65
2023/03/23 12:32:37;;;;;;;;;;;17.50;68.00;;;;;;10071885;28;94144;-65
2023/03/23 12:37:48;;;;;;;;;;;17.50;67.80;;;;;;9950358;29;95966;-65
2023/03/23 12:42:51;;;;;;;;;;;17.50;67.80;;;;;;10063231;28;93450;-64
2023/03/23 12:47:56;;;;;;;;;;;17.50;67.80;;;;;;10070273;28;94634;-65
2023/03/23 12:53:11;;;;;;;;;;;17.50;67.80;;;;;;10071535;28;96191;-65
2023/03/23 12:58:23;;;;;;;;;;;17.40;67.70;;;;;;10071259;28;94568;-65
2023/03/23 13:03:30;;;;;;;;;;;17.40;67.70;;;;;;10088333;28;94071;-65
2023/03/23 13:08:33;;;;;;;;;;;17.40;67.50;;;;;;10075916;28;93874;-65
2023/03/23 13:14:03;;;;;;;;;;;17.30;67.70;;;;;;10094605;28;94559;-65
2023/03/23 13:19:19;;;;;;;;;;;17.30;67.60;;;;;;10061703;28;97828;-65
2023/03/23 13:24:23;;;;;;;;;;;17.30;67.50;;;;;;10093252;28;92857;-65
2023/03/23 13:29:24;;;;;;;;;;;17.30;67.40;;;;;;10094563;28;93983;-65
2023/03/23 13:34:28;;;;;;;;;;;17.30;67.60;;;;;;10093806;28;93722;-65
2023/03/23 13:39:36;;;;;;;;;;;17.30;67.60;;;;;;10095265;28;93988;-65
2023/03/23 13:44:40;;;;;;;;;;;17.30;67.60;;;;;;10093613;28;93744;-65
2023/03/23 13:49:55;;;;;;;;;;;17.30;67.60;;;;;;10094656;28;94564;-66
2023/03/23 13:55:08;;;;;;;;;;;17.20;68.40;;;;;;10094203;28;92591;-65
2023/03/23 14:00:24;;;;;;;;;;;17.30;67.70;;;;;;10092670;28;93263;-65
2023/03/23 14:05:52;;;;;;;;;;;17.30;67.70;;;;;;10093607;28;94084;-64
2023/03/23 14:11:09;;;;;;;;;;;17.30;67.70;;;;;;10071154;28;96902;-65
2023/03/23 14:16:36;;;;;;;;;;;17.30;67.70;;;;;;10077696;28;94279;-65
2023/03/23 14:21:39;;;;;;;;;;;17.30;67.60;;;;;;10091530;28;93213;-65
2023/03/23 14:26:41;;;;;;;;;;;17.30;67.70;;;;;;10075272;28;93040;-65
2023/03/23 14:31:42;;;;;;;;;;;17.30;67.70;;;;;;10091934;28;92541;-65
2023/03/23 14:36:43;;;;;;;;;;;17.30;67.70;;;;;;10074731;28;94686;-65
2023/03/23 14:41:44;;;;;;;;;;;17.30;67.70;;;;;;10060064;28;94131;-65
2023/03/23 14:46:45;;;;;;;;;;;17.40;67.70;;;;;;10059803;28;93203;-62
2023/03/23 14:51:52;;;;;;;;;;;17.40;67.70;;;;;;10091200;28;93197;-65
2023/03/23 14:56:54;;;;;;;;;;;17.40;67.70;;;;;;10091209;28;93220;-65
2023/03/23 15:01:54;;;;;;;;;;;17.40;67.70;;;;;;10088440;28;97139;-65
2023/03/23 15:06:58;;;;;;;;;;;17.40;67.60;;;;;;10090448;28;93698;-65
2023/03/23 15:12:00;;;;;;;;;;;17.40;67.50;;;;;;10090317;28;93106;-65
2023/03/23 15:17:01;;;;;;;;;;;17.40;67.40;;;;;;10090597;28;93364;-65
2023/03/23 15:22:29;;;;;;;;;;;17.40;67.40;;;;;;10090937;28;93618;-65
2023/03/23 15:27:32;;;;;;;;;;;17.40;67.50;;;;;;10067053;28;95231;-65
2023/03/23 15:32:40;;;;;;;;;;;17.40;67.40;;;;;;10073201;28;92905;-65
2023/03/23 15:37:43;;;;;;;;;;;17.50;67.30;;;;;;10073987;28;93514;-64
2023/03/23 15:42:44;;;;;;;;;;;17.50;67.30;;;;;;10089961;28;93503;-65
2023/03/23 15:47:47;;;;;;;;;;;17.50;67.40;;;;;;10090396;28;93319;-64
2023/03/23 15:52:48;;;;;;;;;;;17.50;67.50;;;;;;10070442;28;97384;-65
2023/03/23 15:57:49;;;;;;;;;;;17.50;67.50;;;;;;10071839;28;93093;-65
2023/03/23 16:03:00;;;;;;;;;;;17.50;67.40;;;;;;10072488;28;93867;-65
2023/03/23 16:08:01;;;;;;;;;;;17.50;67.40;;;;;;10088195;28;94542;-65
2023/03/23 16:13:06;;;;;;;;;;;17.40;67.30;;;;;;10088747;28;93664;-65
2023/03/23 16:18:14;;;;;;;;;;;17.40;67.30;;;;;;10089248;28;94438;-65
2023/03/23 16:23:16;;;;;;;;;;;17.40;67.50;;;;;;10088334;28;93673;-65
2023/03/23 16:28:19;;;;;;;;;;;17.50;67.40;;;;;;10074206;28;92822;-65
2023/03/23 16:33:22;;;;;;;;;;;17.50;67.40;;;;;;10049641;29;93540;-65
2023/03/23 16:38:24;;;;;;;;;;;17.50;67.40;;;;;;10049013;29;94925;-64
2023/03/23 16:43:25;;;;;;;;;;;17.50;67.40;;;;;;10047315;29;96147;-64
2023/03/23 16:48:27;;;;;;;;;;;17.60;67.30;;;;;;10048244;29;93188;-65
2023/03/23 16:53:29;;;;;;;;;;;17.60;67.30;;;;;;10048400;28;93599;-71
2023/03/23 16:58:31;;;;;;;;;;;17.60;67.30;;;;;;10047634;29;94919;-65
2023/03/23 17:03:32;;;;;;;;;;;17.70;67.20;;;;;;10047922;29;93587;-65
2023/03/23 17:08:34;;;;;;;;;;;17.70;67.30;;;;;;10030936;29;93447;-65
2023/03/23 17:13:36;;;;;;;;;;;17.70;67.30;;;;;;10030921;29;93498;-63
2023/03/23 17:18:38;;;;;;;;;;;17.80;67.50;;;;;;10048233;29;93513;-63
2023/03/23 17:23:40;;;;;;;;;;;17.80;68.80;;;;;;10030991;28;94290;-63
2023/03/23 17:28:42;;;;;;;;;;;17.90;70.10;;;;;;10047969;29;94450;-59
2023/03/23 17:33:44;;;;;;;;;;;18.00;70.20;;;;;;10043410;29;95970;-63
2023/03/23 17:38:45;;;;;;;;;;;18.10;69.50;;;;;;10047115;29;94454;-64
2023/03/23 17:43:47;;;;;;;;;;;18.10;69.50;;;;;;10047286;29;93177;-66
2023/03/23 17:48:50;;;;;;;;;;;18.20;69.70;;;;;;10046840;29;93299;-64
2023/03/23 17:53:52;;;;;;;;;;;18.20;69.70;;;;;;10052384;29;93550;-64
2023/03/23 17:58:54;;;;;;;;;;;18.20;69.30;;;;;;10053491;29;94019;-65
2023/03/23 18:03:55;;;;;;;;;;;18.20;68.50;;;;;;10053447;29;94492;-64
2023/03/23 18:08:57;;;;;;;;;;;18.10;68.50;;;;;;10054380;29;92687;-64
2023/03/23 18:13:59;;;;;;;;;;;18.10;68.50;;;;;;10035861;29;94695;-64
2023/03/23 18:19:01;;;;;;;;;;;18.00;68.50;;;;;;10052719;29;93523;-64
2023/03/23 18:24:02;;;;;;;;;;;18.00;68.50;;;;;;10049249;29;95850;-64
2023/03/23 18:29:04;;;;;;;;;;;18.00;68.60;;;;;;10053006;29;94472;-65
2023/03/23 18:34:06;;;;;;;;;;;18.00;68.80;;;;;;10053293;29;94434;-65
2023/03/23 18:39:09;;;;;;;;;;;18.10;68.80;;;;;;10051954;29;93547;-64
2023/03/23 18:44:11;;;;;;;;;;;18.20;68.50;;;;;;10052738;29;94932;-64
2023/03/23 18:49:13;;;;;;;;;;;18.30;68.30;;;;;;10051370;29;93506;-64
2023/03/23 18:54:16;;;;;;;;;;;18.30;68.10;;;;;;10035568;29;93569;-64
2023/03/23 18:59:18;;;;;;;;;;;18.30;68.00;;;;;;10036474;29;93570;-65
2023/03/23 19:04:22;;;;;;;;;;;18.30;67.90;;;;;;10049437;29;93690;-64
2023/03/23 19:09:23;;;;;;;;;;;18.30;67.90;;;;;;10050429;29;94607;-64
2023/03/23 19:14:25;;;;;;;;;;;18.20;68.00;;;;;;10047666;29;95972;-64
2023/03/23 19:19:27;;;;;;;;;;;18.10;68.00;;;;;;10033985;29;94567;-64
2023/03/23 19:24:29;;;;;;;;;;;18.10;68.10;;;;;;10051935;29;94497;-64
2023/03/23 19:29:30;;;;;;;;;;;18.10;68.10;;;;;;10051415;29;92573;-65
2023/03/23 19:34:32;;;;;;;;;;;18.10;68.40;;;;;;10050069;29;93343;-65
2023/03/23 19:39:34;;;;;;;;;;;18.10;68.50;;;;;;10051137;29;93051;-65
2023/03/23 19:44:40;;;;;;;;;;;18.10;68.60;;;;;;10034025;29;114583;-65
2023/03/23 19:49:42;;;;;;;;;;;18.10;68.70;;;;;;10050326;29;92375;-64
2023/03/23 19:54:44;;;;;;;;;;;18.10;68.70;;;;;;10049555;29;93226;-65
2023/03/23 19:59:46;;;;;;;;;;;18.00;68.60;;;;;;10049813;29;94547;-65
2023/03/23 20:04:48;;;;;;;;;;;18.00;68.60;;;;;;10046390;29;96983;-64
2023/03/23 20:09:50;;;;;;;;;;;18.00;68.70;;;;;;10048804;29;93423;-64
2023/03/23 20:14:52;;;;;;;;;;;18.00;68.60;;;;;;10049729;29;94794;-64
2023/03/23 20:19:55;;;;;;;;;;;17.90;68.70;;;;;;10032339;29;93452;-64
2023/03/23 20:24:57;;;;;;;;;;;17.90;68.70;;;;;;10049086;29;93706;-65
2023/03/23 20:30:01;;;;;;;;;;;17.90;68.80;;;;;;10049715;29;93974;-64
2023/03/23 20:35:08;;;;;;;;;;;17.90;68.80;;;;;;10048943;29;93636;-65
2023/03/23 20:40:11;;;;;;;;;;;17.90;69.00;;;;;;10032074;29;93653;-64
2023/03/23 20:45:14;;;;;;;;;;;17.90;69.00;;;;;;10031376;29;93524;-64
2023/03/23 20:50:16;;;;;;;;;;;17.80;69.00;;;;;;10047960;29;93143;-65
2023/03/23 20:55:18;;;;;;;;;;;17.80;69.10;;;;;;10045986;29;96916;-64
2023/03/23 21:00:20;;;;;;;;;;;17.80;69.20;;;;;;10047742;29;93940;-65
2023/03/23 21:05:22;;;;;;;;;;;17.80;69.30;;;;;;10048833;29;92702;-65
2023/03/23 21:10:24;;;;;;;;;;;17.80;69.20;;;;;;10049349;29;94269;-65
2023/03/23 21:15:26;;;;;;;;;;;17.80;69.40;;;;;;10031397;29;93495;-65
2023/03/23 21:20:28;;;;;;;;;;;17.80;69.40;;;;;;10048477;29;93441;-65
2023/03/23 21:25:30;;;;;;;;;;;17.80;69.50;;;;;;10048492;29;93642;-65
2023/03/23 21:30:36;;;;;;;;;;;17.70;69.40;;;;;;10055879;29;92531;-65
2023/03/23 21:35:38;;;;;;;;;;;17.70;69.50;;;;;;10054263;29;93407;-64
2023/03/23 21:40:40;;;;;;;;;;;17.70;69.50;;;;;;10021662;29;94811;-65
2023/03/23 21:45:43;;;;;;;;;;;17.70;69.60;;;;;;10051766;29;96833;-65
2023/03/23 21:50:45;;;;;;;;;;;17.70;69.60;;;;;;10053000;29;93460;-65
2023/03/23 21:55:50;;;;;;;;;;;17.70;69.70;;;;;;10036561;29;94144;-64
2023/03/23 22:00:53;;;;;;;;;;;17.70;69.70;;;;;;10053594;29;94014;-65
2023/03/23 22:05:55;;;;;;;;;;;17.70;69.60;;;;;;10054636;29;94280;-65
2023/03/23 22:11:00;;;;;;;;;;;17.70;69.60;;;;;;10055307;29;93891;-65
2023/03/23 22:16:03;;;;;;;;;;;17.60;69.50;;;;;;10053444;29;94478;-65
2023/03/23 22:21:06;;;;;;;;;;;17.60;69.50;;;;;;10053540;29;92530;-65
2023/03/23 22:26:09;;;;;;;;;;;17.60;69.40;;;;;;10052647;29;94311;-65
2023/03/23 22:31:12;;;;;;;;;;;17.60;69.60;;;;;;10035378;29;94547;-65
2023/03/23 22:36:15;;;;;;;;;;;17.60;69.40;;;;;;10050226;29;96014;-65
2023/03/23 22:41:21;;;;;;;;;;;17.60;69.30;;;;;;10053038;29;94207;-65
2023/03/23 22:46:26;;;;;;;;;;;17.60;69.30;;;;;;10053040;29;94504;-65
2023/03/23 22:51:28;;;;;;;;;;;17.60;69.30;;;;;;10052597;29;94517;-65
2023/03/23 22:56:29;;;;;;;;;;;17.50;69.20;;;;;;10053996;29;93556;-65
2023/03/23 23:01:31;;;;;;;;;;;17.50;69.10;;;;;;10052144;29;94163;-65
2023/03/23 23:06:33;;;;;;;;;;;17.50;69.10;;;;;;10052782;29;93514;-65
2023/03/23 23:11:35;;;;;;;;;;;17.50;69.00;;;;;;10052765;29;92670;-65
2023/03/23 23:16:36;;;;;;;;;;;17.50;69.00;;;;;;10034476;29;93294;-66
2023/03/23 23:21:39;;;;;;;;;;;17.50;69.00;;;;;;10050255;29;95334;-65
2023/03/23 23:26:43;;;;;;;;;;;17.50;69.00;;;;;;10049129;29;96441;-65
2023/03/23 23:31:45;;;;;;;;;;;17.50;69.00;;;;;;10034431;29;94458;-65
2023/03/23 23:36:47;;;;;;;;;;;17.40;68.90;;;;;;10051590;29;94372;-65
2023/03/23 23:41:48;;;;;;;;;;;17.40;68.90;;;;;;10050313;29;92784;-65
2023/03/23 23:46:50;;;;;;;;;;;17.40;68.90;;;;;;10051227;29;92969;-65
2023/03/23 23:51:52;;;;;;;;;;;17.40;68.90;;;;;;10049502;29;94059;-65
2023/03/23 23:56:53;;;;;;;;;;;17.40;68.90;;;;;;10050466;29;93379;-65
